sensor_id;sensor_type;location;lat;lon;timestamp;P1;durP1;ratioP1;P2;durP2;ratioP2
8993;SDS011;4532;50.886;4.700;2023-08-06T00:00:56;3.45;;;1.10;;
8993;SDS011;4532;50.886;4.700;2023-08-06T00:03:23;2.65;;;1.08;;
8993;SDS011;4532;50.886;4.700;2023-08-06T00:05:51;2.90;;;1.10;;
8993;SDS011;4532;50.886;4.700;2023-08-06T00:08:18;2.40;;;1.00;;
8993;SDS011;4532;50.886;4.700;2023-08-06T00:10:47;3.33;;;1.05;;
8993;SDS011;4532;50.886;4.700;2023-08-06T00:13:17;2.58;;;1.10;;
8993;SDS011;4532;50.886;4.700;2023-08-06T00:15:44;4.00;;;1.10;;
8993;SDS011;4532;50.886;4.700;2023-08-06T00:18:14;3.10;;;1.30;;
8993;SDS011;4532;50.886;4.700;2023-08-06T00:20:41;4.53;;;1.05;;
8993;SDS011;4532;50.886;4.700;2023-08-06T00:23:10;2.08;;;1.10;;
8993;SDS011;4532;50.886;4.700;2023-08-06T00:25:40;2.10;;;0.90;;
8993;SDS011;4532;50.886;4.700;2023-08-06T00:28:07;2.45;;;1.00;;
8993;SDS011;4532;50.886;4.700;2023-08-06T00:30:38;1.35;;;0.70;;
8993;SDS011;4532;50.886;4.700;2023-08-06T00:33:05;2.78;;;1.10;;
8993;SDS011;4532;50.886;4.700;2023-08-06T00:35:32;2.40;;;1.00;;
8993;SDS011;4532;50.886;4.700;2023-08-06T00:38:02;1.93;;;1.07;;
8993;SDS011;4532;50.886;4.700;2023-08-06T00:40:34;2.65;;;1.00;;
8993;SDS011;4532;50.886;4.700;2023-08-06T00:43:06;2.05;;;1.08;;
8993;SDS011;4532;50.886;4.700;2023-08-06T00:45:39;1.73;;;0.80;;
8993;SDS011;4532;50.886;4.700;2023-08-06T00:48:06;3.10;;;1.17;;
8993;SDS011;4532;50.886;4.700;2023-08-06T00:50:39;2.00;;;1.10;;
8993;SDS011;4532;50.886;4.700;2023-08-06T00:53:09;3.15;;;1.05;;
8993;SDS011;4532;50.886;4.700;2023-08-06T00:55:37;3.20;;;0.80;;
8993;SDS011;4532;50.886;4.700;2023-08-06T00:58:07;1.52;;;0.73;;
8993;SDS011;4532;50.886;4.700;2023-08-06T01:00:35;2.30;;;0.82;;
8993;SDS011;4532;50.886;4.700;2023-08-06T01:03:04;2.90;;;1.00;;
8993;SDS011;4532;50.886;4.700;2023-08-06T01:05:31;2.53;;;1.00;;
8993;SDS011;4532;50.886;4.700;2023-08-06T01:15:55;3.20;;;1.08;;
8993;SDS011;4532;50.886;4.700;2023-08-06T01:18:25;2.50;;;1.00;;
8993;SDS011;4532;50.886;4.700;2023-08-06T01:20:52;4.57;;;1.35;;
8993;SDS011;4532;50.886;4.700;2023-08-06T01:23:25;2.60;;;1.33;;
8993;SDS011;4532;50.886;4.700;2023-08-06T01:26:02;4.68;;;1.70;;
8993;SDS011;4532;50.886;4.700;2023-08-06T01:31:41;2.97;;;1.60;;
8993;SDS011;4532;50.886;4.700;2023-08-06T01:34:10;2.25;;;1.20;;
8993;SDS011;4532;50.886;4.700;2023-08-06T01:36:43;2.10;;;1.23;;
8993;SDS011;4532;50.886;4.700;2023-08-06T01:39:11;4.40;;;1.40;;
8993;SDS011;4532;50.886;4.700;2023-08-06T01:41:38;2.40;;;1.40;;
8993;SDS011;4532;50.886;4.700;2023-08-06T01:44:09;3.67;;;1.75;;
8993;SDS011;4532;50.886;4.700;2023-08-06T01:46:36;2.88;;;2.00;;
8993;SDS011;4532;50.886;4.700;2023-08-06T01:49:03;4.10;;;1.70;;
8993;SDS011;4532;50.886;4.700;2023-08-06T01:51:31;3.03;;;1.70;;
8993;SDS011;4532;50.886;4.700;2023-08-06T01:54:01;3.65;;;1.70;;
8993;SDS011;4532;50.886;4.700;2023-08-06T01:56:30;1.90;;;1.55;;
8993;SDS011;4532;50.886;4.700;2023-08-06T01:58:57;2.30;;;1.73;;
8993;SDS011;4532;50.886;4.700;2023-08-06T02:01:30;3.58;;;1.60;;
8993;SDS011;4532;50.886;4.700;2023-08-06T02:04:04;4.25;;;1.92;;
8993;SDS011;4532;50.886;4.700;2023-08-06T02:06:31;2.00;;;1.75;;
8993;SDS011;4532;50.886;4.700;2023-08-06T02:08:59;3.58;;;2.17;;
8993;SDS011;4532;50.886;4.700;2023-08-06T02:11:26;1.88;;;1.77;;
8993;SDS011;4532;50.886;4.700;2023-08-06T02:13:53;4.15;;;1.85;;
8993;SDS011;4532;50.886;4.700;2023-08-06T02:16:23;3.97;;;2.22;;
8993;SDS011;4532;50.886;4.700;2023-08-06T02:18:51;2.67;;;2.00;;
8993;SDS011;4532;50.886;4.700;2023-08-06T02:21:18;2.60;;;2.00;;
8993;SDS011;4532;50.886;4.700;2023-08-06T02:23:45;3.17;;;2.10;;
8993;SDS011;4532;50.886;4.700;2023-08-06T02:26:19;2.38;;;2.13;;
8993;SDS011;4532;50.886;4.700;2023-08-06T02:28:47;3.85;;;2.22;;
8993;SDS011;4532;50.886;4.700;2023-08-06T02:31:14;3.65;;;1.98;;
8993;SDS011;4532;50.886;4.700;2023-08-06T02:33:46;5.28;;;2.25;;
8993;SDS011;4532;50.886;4.700;2023-08-06T02:36:19;5.47;;;2.38;;
8993;SDS011;4532;50.886;4.700;2023-08-06T02:38:48;2.83;;;2.03;;
8993;SDS011;4532;50.886;4.700;2023-08-06T02:41:18;4.35;;;2.28;;
8993;SDS011;4532;50.886;4.700;2023-08-06T02:43:48;3.50;;;2.20;;
8993;SDS011;4532;50.886;4.700;2023-08-06T02:46:15;4.07;;;2.20;;
8993;SDS011;4532;50.886;4.700;2023-08-06T02:48:42;3.45;;;2.10;;
8993;SDS011;4532;50.886;4.700;2023-08-06T02:51:12;4.32;;;2.65;;
8993;SDS011;4532;50.886;4.700;2023-08-06T02:53:47;3.55;;;2.15;;
8993;SDS011;4532;50.886;4.700;2023-08-06T02:56:21;3.35;;;2.17;;
8993;SDS011;4532;50.886;4.700;2023-08-06T02:58:52;4.05;;;2.30;;
8993;SDS011;4532;50.886;4.700;2023-08-06T03:01:22;3.67;;;2.30;;
8993;SDS011;4532;50.886;4.700;2023-08-06T03:03:52;3.57;;;2.40;;
8993;SDS011;4532;50.886;4.700;2023-08-06T03:06:19;3.45;;;2.28;;
8993;SDS011;4532;50.886;4.700;2023-08-06T03:08:46;4.70;;;2.38;;
8993;SDS011;4532;50.886;4.700;2023-08-06T03:11:16;2.70;;;2.25;;
8993;SDS011;4532;50.886;4.700;2023-08-06T03:13:43;3.97;;;2.60;;
8993;SDS011;4532;50.886;4.700;2023-08-06T03:16:11;6.22;;;2.67;;
8993;SDS011;4532;50.886;4.700;2023-08-06T03:18:41;3.08;;;2.38;;
8993;SDS011;4532;50.886;4.700;2023-08-06T03:21:13;7.13;;;2.53;;
8993;SDS011;4532;50.886;4.700;2023-08-06T03:23:40;5.65;;;2.42;;
8993;SDS011;4532;50.886;4.700;2023-08-06T03:26:09;5.35;;;2.30;;
8993;SDS011;4532;50.886;4.700;2023-08-06T03:28:36;3.88;;;2.50;;
8993;SDS011;4532;50.886;4.700;2023-08-06T03:31:11;4.53;;;2.60;;
8993;SDS011;4532;50.886;4.700;2023-08-06T03:33:45;3.63;;;2.67;;
8993;SDS011;4532;50.886;4.700;2023-08-06T03:36:15;5.30;;;2.70;;
8993;SDS011;4532;50.886;4.700;2023-08-06T03:38:42;4.28;;;2.55;;
8993;SDS011;4532;50.886;4.700;2023-08-06T03:41:09;4.72;;;2.70;;
8993;SDS011;4532;50.886;4.700;2023-08-06T03:43:36;4.78;;;3.05;;
8993;SDS011;4532;50.886;4.700;2023-08-06T03:46:11;5.22;;;3.60;;
8993;SDS011;4532;50.886;4.700;2023-08-06T03:48:38;5.78;;;3.83;;
8993;SDS011;4532;50.886;4.700;2023-08-06T03:51:08;4.70;;;3.88;;
8993;SDS011;4532;50.886;4.700;2023-08-06T03:53:35;5.35;;;4.25;;
8993;SDS011;4532;50.886;4.700;2023-08-06T03:56:07;5.68;;;3.88;;
8993;SDS011;4532;50.886;4.700;2023-08-06T03:58:34;7.47;;;4.18;;
8993;SDS011;4532;50.886;4.700;2023-08-06T04:01:02;5.80;;;5.10;;
8993;SDS011;4532;50.886;4.700;2023-08-06T04:03:30;9.57;;;5.70;;
8993;SDS011;4532;50.886;4.700;2023-08-06T04:05:57;7.22;;;5.32;;
8993;SDS011;4532;50.886;4.700;2023-08-06T04:08:25;6.05;;;5.45;;
8993;SDS011;4532;50.886;4.700;2023-08-06T04:10:52;6.20;;;5.18;;
8993;SDS011;4532;50.886;4.700;2023-08-06T04:13:19;8.63;;;6.22;;
8993;SDS011;4532;50.886;4.700;2023-08-06T04:15:47;7.85;;;5.97;;
8993;SDS011;4532;50.886;4.700;2023-08-06T04:18:17;6.95;;;6.03;;
8993;SDS011;4532;50.886;4.700;2023-08-06T04:20:44;8.77;;;7.10;;
8993;SDS011;4532;50.886;4.700;2023-08-06T04:23:12;8.45;;;7.13;;
8993;SDS011;4532;50.886;4.700;2023-08-06T04:25:40;9.70;;;8.15;;
8993;SDS011;4532;50.886;4.700;2023-08-06T04:28:09;8.70;;;7.80;;
8993;SDS011;4532;50.886;4.700;2023-08-06T04:30:38;9.40;;;7.80;;
8993;SDS011;4532;50.886;4.700;2023-08-06T04:33:05;8.95;;;7.50;;
8993;SDS011;4532;50.886;4.700;2023-08-06T04:35:33;7.53;;;6.65;;
8993;SDS011;4532;50.886;4.700;2023-08-06T04:38:00;5.97;;;5.38;;
8993;SDS011;4532;50.886;4.700;2023-08-06T04:40:27;5.90;;;5.22;;
8993;SDS011;4532;50.886;4.700;2023-08-06T04:42:54;5.50;;;4.72;;
8993;SDS011;4532;50.886;4.700;2023-08-06T04:45:22;3.83;;;2.88;;
8993;SDS011;4532;50.886;4.700;2023-08-06T04:47:51;2.30;;;2.03;;
8993;SDS011;4532;50.886;4.700;2023-08-06T04:50:19;1.50;;;1.20;;
8993;SDS011;4532;50.886;4.700;2023-08-06T04:52:50;2.53;;;1.08;;
8993;SDS011;4532;50.886;4.700;2023-08-06T04:55:18;1.10;;;0.85;;
8993;SDS011;4532;50.886;4.700;2023-08-06T04:57:47;0.97;;;0.70;;
8993;SDS011;4532;50.886;4.700;2023-08-06T05:00:17;0.80;;;0.60;;
8993;SDS011;4532;50.886;4.700;2023-08-06T05:02:49;0.73;;;0.60;;
8993;SDS011;4532;50.886;4.700;2023-08-06T05:05:16;0.60;;;0.60;;
8993;SDS011;4532;50.886;4.700;2023-08-06T05:07:48;0.95;;;0.63;;
8993;SDS011;4532;50.886;4.700;2023-08-06T05:10:28;2.25;;;1.13;;
8993;SDS011;4532;50.886;4.700;2023-08-06T05:13:00;1.92;;;1.40;;
8993;SDS011;4532;50.886;4.700;2023-08-06T05:15:27;4.65;;;1.90;;
8993;SDS011;4532;50.886;4.700;2023-08-06T05:17:55;3.13;;;2.33;;
8993;SDS011;4532;50.886;4.700;2023-08-06T05:20:29;3.85;;;2.78;;
8993;SDS011;4532;50.886;4.700;2023-08-06T05:22:56;4.40;;;3.03;;
8993;SDS011;4532;50.886;4.700;2023-08-06T05:25:28;4.10;;;2.97;;
8993;SDS011;4532;50.886;4.700;2023-08-06T05:27:56;7.50;;;3.17;;
8993;SDS011;4532;50.886;4.700;2023-08-06T05:30:26;4.03;;;2.73;;
8993;SDS011;4532;50.886;4.700;2023-08-06T05:32:56;5.37;;;2.60;;
8993;SDS011;4532;50.886;4.700;2023-08-06T05:35:31;4.80;;;2.70;;
8993;SDS011;4532;50.886;4.700;2023-08-06T05:37:58;4.43;;;2.80;;
8993;SDS011;4532;50.886;4.700;2023-08-06T05:40:27;5.10;;;2.73;;
8993;SDS011;4532;50.886;4.700;2023-08-06T05:42:57;6.57;;;2.70;;
8993;SDS011;4532;50.886;4.700;2023-08-06T05:45:24;2.83;;;2.30;;
8993;SDS011;4532;50.886;4.700;2023-08-06T05:47:51;5.00;;;2.33;;
8993;SDS011;4532;50.886;4.700;2023-08-06T05:50:20;4.07;;;2.25;;
8993;SDS011;4532;50.886;4.700;2023-08-06T05:52:48;4.97;;;2.40;;
8993;SDS011;4532;50.886;4.700;2023-08-06T05:55:15;4.67;;;2.53;;
8993;SDS011;4532;50.886;4.700;2023-08-06T05:57:42;4.87;;;2.50;;
8993;SDS011;4532;50.886;4.700;2023-08-06T06:00:09;4.80;;;2.20;;
8993;SDS011;4532;50.886;4.700;2023-08-06T06:02:37;3.97;;;2.45;;
8993;SDS011;4532;50.886;4.700;2023-08-06T06:05:08;4.53;;;2.13;;
8993;SDS011;4532;50.886;4.700;2023-08-06T06:07:35;4.23;;;2.17;;
8993;SDS011;4532;50.886;4.700;2023-08-06T06:10:05;3.03;;;1.90;;
8993;SDS011;4532;50.886;4.700;2023-08-06T06:12:32;5.10;;;2.17;;
8993;SDS011;4532;50.886;4.700;2023-08-06T06:15:02;2.23;;;1.63;;
8993;SDS011;4532;50.886;4.700;2023-08-06T06:17:35;3.37;;;2.00;;
8993;SDS011;4532;50.886;4.700;2023-08-06T06:20:02;11.20;;;2.90;;
8993;SDS011;4532;50.886;4.700;2023-08-06T06:22:32;5.73;;;2.27;;
8993;SDS011;4532;50.886;4.700;2023-08-06T06:25:02;4.83;;;2.50;;
8993;SDS011;4532;50.886;4.700;2023-08-06T06:27:29;4.93;;;2.40;;
8993;SDS011;4532;50.886;4.700;2023-08-06T06:29:57;6.53;;;2.60;;
8993;SDS011;4532;50.886;4.700;2023-08-06T06:32:24;7.07;;;2.38;;
8993;SDS011;4532;50.886;4.700;2023-08-06T06:34:54;5.70;;;2.40;;
8993;SDS011;4532;50.886;4.700;2023-08-06T06:37:21;5.53;;;2.37;;
8993;SDS011;4532;50.886;4.700;2023-08-06T06:39:51;6.90;;;2.80;;
8993;SDS011;4532;50.886;4.700;2023-08-06T06:42:20;5.77;;;2.47;;
8993;SDS011;4532;50.886;4.700;2023-08-06T06:44:49;5.13;;;2.10;;
8993;SDS011;4532;50.886;4.700;2023-08-06T06:47:18;7.03;;;2.30;;
8993;SDS011;4532;50.886;4.700;2023-08-06T06:49:45;4.97;;;2.43;;
8993;SDS011;4532;50.886;4.700;2023-08-06T06:52:15;5.00;;;2.50;;
8993;SDS011;4532;50.886;4.700;2023-08-06T06:54:44;5.93;;;2.50;;
8993;SDS011;4532;50.886;4.700;2023-08-06T06:57:12;7.27;;;2.87;;
8993;SDS011;4532;50.886;4.700;2023-08-06T06:59:39;5.57;;;2.83;;
8993;SDS011;4532;50.886;4.700;2023-08-06T07:02:07;6.63;;;2.60;;
8993;SDS011;4532;50.886;4.700;2023-08-06T07:04:38;7.70;;;2.70;;
8993;SDS011;4532;50.886;4.700;2023-08-06T07:07:05;6.87;;;3.00;;
8993;SDS011;4532;50.886;4.700;2023-08-06T07:09:33;4.37;;;2.70;;
8993;SDS011;4532;50.886;4.700;2023-08-06T07:12:00;5.13;;;2.70;;
8993;SDS011;4532;50.886;4.700;2023-08-06T07:14:28;7.60;;;2.93;;
8993;SDS011;4532;50.886;4.700;2023-08-06T07:16:57;6.70;;;3.27;;
8993;SDS011;4532;50.886;4.700;2023-08-06T07:19:27;5.10;;;2.80;;
8993;SDS011;4532;50.886;4.700;2023-08-06T07:21:56;6.07;;;2.60;;
8993;SDS011;4532;50.886;4.700;2023-08-06T07:24:24;5.47;;;3.17;;
8993;SDS011;4532;50.886;4.700;2023-08-06T07:26:51;8.53;;;3.20;;
8993;SDS011;4532;50.886;4.700;2023-08-06T07:29:21;5.67;;;2.90;;
8993;SDS011;4532;50.886;4.700;2023-08-06T07:31:49;7.83;;;2.70;;
8993;SDS011;4532;50.886;4.700;2023-08-06T07:34:17;6.27;;;2.80;;
8993;SDS011;4532;50.886;4.700;2023-08-06T07:36:45;5.83;;;2.87;;
8993;SDS011;4532;50.886;4.700;2023-08-06T07:39:15;7.50;;;2.53;;
8993;SDS011;4532;50.886;4.700;2023-08-06T07:41:43;7.47;;;2.77;;
8993;SDS011;4532;50.886;4.700;2023-08-06T07:44:12;7.63;;;2.70;;
8993;SDS011;4532;50.886;4.700;2023-08-06T07:46:39;5.50;;;2.80;;
8993;SDS011;4532;50.886;4.700;2023-08-06T07:49:12;5.47;;;2.20;;
8993;SDS011;4532;50.886;4.700;2023-08-06T07:51:40;6.60;;;1.93;;
8993;SDS011;4532;50.886;4.700;2023-08-06T07:54:07;6.67;;;2.40;;
8993;SDS011;4532;50.886;4.700;2023-08-06T07:56:34;7.47;;;2.07;;
8993;SDS011;4532;50.886;4.700;2023-08-06T07:59:06;6.33;;;2.20;;
8993;SDS011;4532;50.886;4.700;2023-08-06T08:01:34;7.20;;;1.67;;
8993;SDS011;4532;50.886;4.700;2023-08-06T08:04:01;7.17;;;2.10;;
8993;SDS011;4532;50.886;4.700;2023-08-06T08:06:28;8.70;;;1.57;;
8993;SDS011;4532;50.886;4.700;2023-08-06T08:08:55;7.97;;;1.63;;
8993;SDS011;4532;50.886;4.700;2023-08-06T08:11:23;6.60;;;1.50;;
8993;SDS011;4532;50.886;4.700;2023-08-06T08:13:52;7.37;;;1.90;;
8993;SDS011;4532;50.886;4.700;2023-08-06T08:16:19;6.27;;;1.63;;
8993;SDS011;4532;50.886;4.700;2023-08-06T08:18:51;8.40;;;1.50;;
8993;SDS011;4532;50.886;4.700;2023-08-06T08:21:18;8.87;;;1.80;;
8993;SDS011;4532;50.886;4.700;2023-08-06T08:23:47;5.83;;;1.63;;
8993;SDS011;4532;50.886;4.700;2023-08-06T08:26:15;6.93;;;1.87;;
8993;SDS011;4532;50.886;4.700;2023-08-06T08:28:44;8.50;;;1.87;;
8993;SDS011;4532;50.886;4.700;2023-08-06T08:31:12;6.93;;;1.60;;
8993;SDS011;4532;50.886;4.700;2023-08-06T08:33:39;8.80;;;1.80;;
8993;SDS011;4532;50.886;4.700;2023-08-06T08:36:08;7.20;;;1.60;;
8993;SDS011;4532;50.886;4.700;2023-08-06T08:38:36;7.17;;;2.03;;
8993;SDS011;4532;50.886;4.700;2023-08-06T08:41:03;6.03;;;2.00;;
8993;SDS011;4532;50.886;4.700;2023-08-06T08:43:36;7.73;;;1.70;;
8993;SDS011;4532;50.886;4.700;2023-08-06T08:46:06;6.33;;;1.70;;
8993;SDS011;4532;50.886;4.700;2023-08-06T08:48:36;5.23;;;1.57;;
8993;SDS011;4532;50.886;4.700;2023-08-06T08:51:06;7.47;;;2.10;;
8993;SDS011;4532;50.886;4.700;2023-08-06T08:53:34;9.67;;;1.87;;
8993;SDS011;4532;50.886;4.700;2023-08-06T08:56:04;6.73;;;1.60;;
8993;SDS011;4532;50.886;4.700;2023-08-06T08:58:36;6.53;;;1.73;;
8993;SDS011;4532;50.886;4.700;2023-08-06T09:01:07;5.63;;;1.70;;
8993;SDS011;4532;50.886;4.700;2023-08-06T09:03:36;5.53;;;2.07;;
8993;SDS011;4532;50.886;4.700;2023-08-06T09:06:05;8.27;;;1.87;;
8993;SDS011;4532;50.886;4.700;2023-08-06T09:08:37;5.83;;;1.57;;
8993;SDS011;4532;50.886;4.700;2023-08-06T09:11:09;5.50;;;1.60;;
8993;SDS011;4532;50.886;4.700;2023-08-06T09:13:39;6.83;;;1.63;;
8993;SDS011;4532;50.886;4.700;2023-08-06T09:16:09;4.83;;;1.60;;
8993;SDS011;4532;50.886;4.700;2023-08-06T09:18:37;7.00;;;1.70;;
8993;SDS011;4532;50.886;4.700;2023-08-06T09:21:14;6.73;;;1.50;;
8993;SDS011;4532;50.886;4.700;2023-08-06T09:23:44;7.90;;;1.97;;
8993;SDS011;4532;50.886;4.700;2023-08-06T09:26:12;6.33;;;1.73;;
8993;SDS011;4532;50.886;4.700;2023-08-06T09:28:47;5.70;;;1.67;;
8993;SDS011;4532;50.886;4.700;2023-08-06T09:31:15;6.27;;;1.97;;
8993;SDS011;4532;50.886;4.700;2023-08-06T09:33:47;5.43;;;1.80;;
8993;SDS011;4532;50.886;4.700;2023-08-06T09:36:21;6.30;;;1.73;;
8993;SDS011;4532;50.886;4.700;2023-08-06T09:38:56;5.57;;;1.60;;
8993;SDS011;4532;50.886;4.700;2023-08-06T09:41:31;7.63;;;1.97;;
8993;SDS011;4532;50.886;4.700;2023-08-06T09:44:01;5.93;;;1.87;;
8993;SDS011;4532;50.886;4.700;2023-08-06T09:46:28;5.97;;;1.93;;
8993;SDS011;4532;50.886;4.700;2023-08-06T09:48:58;3.80;;;1.40;;
8993;SDS011;4532;50.886;4.700;2023-08-06T09:51:28;4.20;;;1.30;;
8993;SDS011;4532;50.886;4.700;2023-08-06T09:53:55;7.83;;;1.73;;
8993;SDS011;4532;50.886;4.700;2023-08-06T09:56:24;5.47;;;1.30;;
8993;SDS011;4532;50.886;4.700;2023-08-06T09:58:53;4.63;;;1.40;;
8993;SDS011;4532;50.886;4.700;2023-08-06T10:01:21;5.87;;;1.53;;
8993;SDS011;4532;50.886;4.700;2023-08-06T10:03:52;4.73;;;1.40;;
8993;SDS011;4532;50.886;4.700;2023-08-06T10:06:24;5.27;;;1.43;;
8993;SDS011;4532;50.886;4.700;2023-08-06T10:08:55;4.63;;;1.73;;
8993;SDS011;4532;50.886;4.700;2023-08-06T10:11:23;3.53;;;1.43;;
8993;SDS011;4532;50.886;4.700;2023-08-06T10:13:57;5.50;;;2.10;;
8993;SDS011;4532;50.886;4.700;2023-08-06T10:16:32;3.90;;;1.33;;
8993;SDS011;4532;50.886;4.700;2023-08-06T10:19:02;4.97;;;1.50;;
8993;SDS011;4532;50.886;4.700;2023-08-06T10:21:34;4.40;;;1.30;;
8993;SDS011;4532;50.886;4.700;2023-08-06T10:24:03;3.60;;;1.10;;
8993;SDS011;4532;50.886;4.700;2023-08-06T10:26:39;7.73;;;1.40;;
8993;SDS011;4532;50.886;4.700;2023-08-06T10:29:54;4.13;;;1.57;;
8993;SDS011;4532;50.886;4.700;2023-08-06T10:32:01;5.93;;;2.03;;
8993;SDS011;4532;50.886;4.700;2023-08-06T10:37:24;9.00;;;1.87;;
8993;SDS011;4532;50.886;4.700;2023-08-06T10:40:06;6.20;;;1.73;;
8993;SDS011;4532;50.886;4.700;2023-08-06T10:42:34;5.37;;;1.80;;
8993;SDS011;4532;50.886;4.700;2023-08-06T10:47:43;4.30;;;1.37;;
8993;SDS011;4532;50.886;4.700;2023-08-06T10:50:11;7.03;;;2.00;;
8993;SDS011;4532;50.886;4.700;2023-08-06T10:52:40;5.27;;;1.60;;
8993;SDS011;4532;50.886;4.700;2023-08-06T10:55:09;5.33;;;1.50;;
8993;SDS011;4532;50.886;4.700;2023-08-06T10:57:41;6.18;;;1.85;;
8993;SDS011;4532;50.886;4.700;2023-08-06T11:00:10;6.43;;;1.70;;
8993;SDS011;4532;50.886;4.700;2023-08-06T11:02:51;7.70;;;1.77;;
8993;SDS011;4532;50.886;4.700;2023-08-06T11:05:22;5.17;;;1.80;;
8993;SDS011;4532;50.886;4.700;2023-08-06T11:07:49;3.43;;;1.53;;
8993;SDS011;4532;50.886;4.700;2023-08-06T11:10:18;6.40;;;1.40;;
8993;SDS011;4532;50.886;4.700;2023-08-06T11:12:50;6.70;;;1.70;;
8993;SDS011;4532;50.886;4.700;2023-08-06T11:15:20;6.27;;;1.80;;
8993;SDS011;4532;50.886;4.700;2023-08-06T11:17:49;5.80;;;1.60;;
8993;SDS011;4532;50.886;4.700;2023-08-06T11:20:17;6.93;;;1.70;;
8993;SDS011;4532;50.886;4.700;2023-08-06T11:22:47;5.18;;;1.73;;
8993;SDS011;4532;50.886;4.700;2023-08-06T11:25:14;5.93;;;1.60;;
8993;SDS011;4532;50.886;4.700;2023-08-06T11:27:44;7.80;;;2.10;;
8993;SDS011;4532;50.886;4.700;2023-08-06T11:30:19;6.43;;;2.27;;
8993;SDS011;4532;50.886;4.700;2023-08-06T11:32:54;5.67;;;1.87;;
8993;SDS011;4532;50.886;4.700;2023-08-06T11:35:36;5.50;;;1.70;;
8993;SDS011;4532;50.886;4.700;2023-08-06T11:38:04;7.53;;;1.87;;
8993;SDS011;4532;50.886;4.700;2023-08-06T11:40:35;4.03;;;1.60;;
8993;SDS011;4532;50.886;4.700;2023-08-06T11:43:02;5.23;;;1.80;;
8993;SDS011;4532;50.886;4.700;2023-08-06T11:45:30;4.83;;;2.07;;
8993;SDS011;4532;50.886;4.700;2023-08-06T11:47:57;4.63;;;1.80;;
8993;SDS011;4532;50.886;4.700;2023-08-06T11:50:29;7.15;;;1.90;;
8993;SDS011;4532;50.886;4.700;2023-08-06T11:52:57;4.30;;;1.67;;
8993;SDS011;4532;50.886;4.700;2023-08-06T11:55:27;3.77;;;1.57;;
8993;SDS011;4532;50.886;4.700;2023-08-06T11:57:56;4.13;;;1.47;;
8993;SDS011;4532;50.886;4.700;2023-08-06T12:00:29;3.80;;;1.53;;
8993;SDS011;4532;50.886;4.700;2023-08-06T12:02:57;4.17;;;1.40;;
8993;SDS011;4532;50.886;4.700;2023-08-06T12:05:33;4.73;;;1.60;;
8993;SDS011;4532;50.886;4.700;2023-08-06T12:08:05;4.53;;;1.57;;
8993;SDS011;4532;50.886;4.700;2023-08-06T12:10:32;5.07;;;1.40;;
8993;SDS011;4532;50.886;4.700;2023-08-06T12:13:00;5.20;;;1.63;;
8993;SDS011;4532;50.886;4.700;2023-08-06T12:15:27;4.10;;;1.40;;
8993;SDS011;4532;50.886;4.700;2023-08-06T12:18:00;5.90;;;1.60;;
8993;SDS011;4532;50.886;4.700;2023-08-06T12:20:30;5.80;;;1.60;;
8993;SDS011;4532;50.886;4.700;2023-08-06T12:22:57;5.20;;;1.40;;
8993;SDS011;4532;50.886;4.700;2023-08-06T12:25:24;5.13;;;1.30;;
8993;SDS011;4532;50.886;4.700;2023-08-06T12:27:52;7.27;;;1.57;;
8993;SDS011;4532;50.886;4.700;2023-08-06T12:30:19;6.43;;;1.50;;
8993;SDS011;4532;50.886;4.700;2023-08-06T12:32:46;5.53;;;1.63;;
8993;SDS011;4532;50.886;4.700;2023-08-06T12:35:17;6.50;;;1.70;;
8993;SDS011;4532;50.886;4.700;2023-08-06T12:37:47;6.73;;;1.97;;
8993;SDS011;4532;50.886;4.700;2023-08-06T12:40:25;6.27;;;1.93;;
8993;SDS011;4532;50.886;4.700;2023-08-06T12:43:04;7.03;;;1.83;;
8993;SDS011;4532;50.886;4.700;2023-08-06T12:45:36;6.97;;;2.10;;
8993;SDS011;4532;50.886;4.700;2023-08-06T12:48:03;7.77;;;1.90;;
8993;SDS011;4532;50.886;4.700;2023-08-06T12:50:33;6.70;;;2.10;;
8993;SDS011;4532;50.886;4.700;2023-08-06T12:53:10;10.80;;;2.33;;
8993;SDS011;4532;50.886;4.700;2023-08-06T12:55:37;7.43;;;2.30;;
8993;SDS011;4532;50.886;4.700;2023-08-06T12:58:08;4.50;;;1.83;;
8993;SDS011;4532;50.886;4.700;2023-08-06T13:00:35;7.40;;;1.70;;
8993;SDS011;4532;50.886;4.700;2023-08-06T13:03:05;4.83;;;1.80;;
8993;SDS011;4532;50.886;4.700;2023-08-06T13:05:34;7.30;;;2.10;;
8993;SDS011;4532;50.886;4.700;2023-08-06T13:08:02;7.47;;;2.17;;
8993;SDS011;4532;50.886;4.700;2023-08-06T13:10:30;5.63;;;1.80;;
8993;SDS011;4532;50.886;4.700;2023-08-06T13:12:57;6.57;;;1.90;;
8993;SDS011;4532;50.886;4.700;2023-08-06T13:15:25;7.23;;;2.20;;
8993;SDS011;4532;50.886;4.700;2023-08-06T13:17:54;6.33;;;1.93;;
8993;SDS011;4532;50.886;4.700;2023-08-06T13:20:24;7.23;;;2.00;;
8993;SDS011;4532;50.886;4.700;2023-08-06T13:22:51;4.40;;;1.53;;
8993;SDS011;4532;50.886;4.700;2023-08-06T13:25:22;5.73;;;1.37;;
8993;SDS011;4532;50.886;4.700;2023-08-06T13:27:50;5.37;;;1.70;;
8993;SDS011;4532;50.886;4.700;2023-08-06T13:30:21;5.33;;;1.80;;
8993;SDS011;4532;50.886;4.700;2023-08-06T13:32:49;6.90;;;1.93;;
8993;SDS011;4532;50.886;4.700;2023-08-06T13:35:19;9.83;;;1.97;;
8993;SDS011;4532;50.886;4.700;2023-08-06T13:37:49;8.87;;;2.07;;
8993;SDS011;4532;50.886;4.700;2023-08-06T13:40:18;7.60;;;1.97;;
8993;SDS011;4532;50.886;4.700;2023-08-06T13:42:50;6.00;;;1.80;;
8993;SDS011;4532;50.886;4.700;2023-08-06T13:45:20;5.77;;;1.40;;
8993;SDS011;4532;50.886;4.700;2023-08-06T13:47:47;8.33;;;2.10;;
8993;SDS011;4532;50.886;4.700;2023-08-06T13:50:15;6.97;;;1.80;;
8993;SDS011;4532;50.886;4.700;2023-08-06T13:52:42;7.23;;;2.17;;
8993;SDS011;4532;50.886;4.700;2023-08-06T13:55:11;7.00;;;2.03;;
8993;SDS011;4532;50.886;4.700;2023-08-06T13:57:38;5.43;;;1.60;;
8993;SDS011;4532;50.886;4.700;2023-08-06T14:00:08;4.17;;;1.40;;
8993;SDS011;4532;50.886;4.700;2023-08-06T14:02:35;5.63;;;1.40;;
8993;SDS011;4532;50.886;4.700;2023-08-06T14:05:02;8.37;;;2.33;;
8993;SDS011;4532;50.886;4.700;2023-08-06T14:07:34;8.37;;;2.30;;
8993;SDS011;4532;50.886;4.700;2023-08-06T14:10:01;8.20;;;1.70;;
8993;SDS011;4532;50.886;4.700;2023-08-06T14:12:28;5.70;;;2.00;;
8993;SDS011;4532;50.886;4.700;2023-08-06T14:14:56;6.27;;;1.50;;
8993;SDS011;4532;50.886;4.700;2023-08-06T14:17:25;5.07;;;1.80;;
8993;SDS011;4532;50.886;4.700;2023-08-06T14:19:55;7.70;;;1.77;;
8993;SDS011;4532;50.886;4.700;2023-08-06T14:22:24;5.93;;;1.80;;
8993;SDS011;4532;50.886;4.700;2023-08-06T14:24:52;7.63;;;1.87;;
8993;SDS011;4532;50.886;4.700;2023-08-06T14:27:20;6.47;;;2.00;;
8993;SDS011;4532;50.886;4.700;2023-08-06T14:29:47;7.73;;;2.00;;
8993;SDS011;4532;50.886;4.700;2023-08-06T14:32:16;6.57;;;1.83;;
8993;SDS011;4532;50.886;4.700;2023-08-06T14:34:46;5.50;;;1.87;;
8993;SDS011;4532;50.886;4.700;2023-08-06T14:37:16;8.97;;;2.07;;
8993;SDS011;4532;50.886;4.700;2023-08-06T14:39:43;6.07;;;1.70;;
8993;SDS011;4532;50.886;4.700;2023-08-06T14:42:13;5.83;;;1.77;;
8993;SDS011;4532;50.886;4.700;2023-08-06T14:44:40;6.30;;;2.00;;
8993;SDS011;4532;50.886;4.700;2023-08-06T14:47:08;6.83;;;2.20;;
8993;SDS011;4532;50.886;4.700;2023-08-06T14:49:35;5.87;;;1.80;;
8993;SDS011;4532;50.886;4.700;2023-08-06T14:52:02;6.00;;;2.03;;
8993;SDS011;4532;50.886;4.700;2023-08-06T14:54:30;9.17;;;2.47;;
8993;SDS011;4532;50.886;4.700;2023-08-06T14:57:04;6.03;;;2.10;;
8993;SDS011;4532;50.886;4.700;2023-08-06T14:59:36;10.20;;;2.47;;
8993;SDS011;4532;50.886;4.700;2023-08-06T15:02:09;8.27;;;2.40;;
8993;SDS011;4532;50.886;4.700;2023-08-06T15:04:40;10.27;;;2.93;;
8993;SDS011;4532;50.886;4.700;2023-08-06T15:07:10;7.07;;;2.00;;
8993;SDS011;4532;50.886;4.700;2023-08-06T15:09:37;7.17;;;2.37;;
8993;SDS011;4532;50.886;4.700;2023-08-06T15:12:24;8.27;;;2.20;;
8993;SDS011;4532;50.886;4.700;2023-08-06T15:14:51;8.17;;;2.50;;
8993;SDS011;4532;50.886;4.700;2023-08-06T15:17:19;7.37;;;2.43;;
8993;SDS011;4532;50.886;4.700;2023-08-06T15:19:55;6.43;;;1.50;;
8993;SDS011;4532;50.886;4.700;2023-08-06T15:22:25;7.23;;;1.87;;
8993;SDS011;4532;50.886;4.700;2023-08-06T15:24:53;7.27;;;2.03;;
8993;SDS011;4532;50.886;4.700;2023-08-06T15:27:20;5.97;;;2.00;;
8993;SDS011;4532;50.886;4.700;2023-08-06T15:29:48;7.20;;;2.10;;
8993;SDS011;4532;50.886;4.700;2023-08-06T15:32:15;6.60;;;1.53;;
8993;SDS011;4532;50.886;4.700;2023-08-06T15:34:51;7.47;;;2.13;;
8993;SDS011;4532;50.886;4.700;2023-08-06T15:37:28;7.70;;;1.90;;
8993;SDS011;4532;50.886;4.700;2023-08-06T15:39:56;6.73;;;1.80;;
8993;SDS011;4532;50.886;4.700;2023-08-06T15:42:30;7.47;;;1.90;;
8993;SDS011;4532;50.886;4.700;2023-08-06T15:45:02;6.27;;;1.83;;